Time;durP1;ratioP1;P1;durP2;ratioP2;P2;SDS_P1;SDS_P2;PMS_P1;PMS_P2;Temp;Humidity;BMP_temperature;BMP_pressure;BME280_temperature;BME280_humidity;BME280_pressure;Samples;Min_cycle;Max_cycle;Signal;HPM_P1;HPM_P2
2023/03/20 00:00:35;;;;;;;;;;;;;;;;;;1032501;28;4218;-52
2023/03/20 00:01:29;;;;;;;;;;;;;;;;;;1030167;28;4014;-55
2023/03/20 00:02:00;;;;;;;;;;;;;;;;;;1034144;28;1876;-55
2023/03/20 00:02:30;;;;;;;;;;;;;;;;;;1034327;28;4068;-53
2023/03/20 00:03:01;;;;;;;;;;;;;;;;;;1031895;28;2732;-55
2023/03/20 00:03:31;;;;;;;;;;;;;;;;;;1032237;28;4060;-54
2023/03/20 00:04:02;;;;;;;;;;;;;;;;;;1032501;28;2789;-53
2023/03/20 00:04:32;;;;;;;;;;;;;;;;;;1033634;28;4020;-55
2023/03/20 00:05:13;;;;;;;;;;;;;;;;;;1033873;28;1896;-53
2023/03/20 00:05:44;;;;;;;;;;;;;;;;;;1031469;28;3876;-54
2023/03/20 00:06:18;;;;;;;;;;;;;;;;;;1035120;28;2641;-52
2023/03/20 00:06:48;;;;;;;;;;;;;;;;;;1035045;28;4170;-53
2023/03/20 00:07:18;;;;;;;;;;;;;;;;;;1034276;28;1690;-54
2023/03/20 00:07:49;;;;;;;;;;;;;;;;;;1030970;28;3997;-56
2023/03/20 00:08:19;;;;;;;;;;;;;;;;;;1033461;28;2924;-53
2023/03/20 00:08:51;;;;;;;;;;;;;;;;;;1031814;28;3858;-54
2023/03/20 00:09:22;;;;;;;;;;;;;;;;;;1034357;28;4052;-50
2023/03/20 00:09:53;;;;;;;;;;;;;;;;;;1032894;28;2185;-51
2023/03/20 00:10:25;;;;;;;;;;;;;;;;;;1032626;28;3880;-55
2023/03/20 00:10:56;;;;;;;;;;;;;;;;;;1033642;28;3020;-52
2023/03/20 00:11:27;;;;;;;;;;;;;;;;;;1031824;28;3797;-54
2023/03/20 00:11:59;;;;;;;;;;;;;;;;;;1034762;28;1860;-54
2023/03/20 00:12:29;;;;;;;;;;;;;;;;;;1034112;28;4086;-50
2023/03/20 00:13:00;;;;;;;;;;;;;;;;;;1033762;28;2417;-52
2023/03/20 00:13:30;;;;;;;;;;;;;;;;;;1033873;28;4638;-53
2023/03/20 00:14:09;;;;;;;;;;;;;;;;;;1034412;28;1703;-52
2023/03/20 00:14:39;;;;;;;;;;;;;;;;;;1034528;28;3877;-54
2023/03/20 00:15:21;;;;;;;;;;;;;;;;;;1032713;28;2764;-54
2023/03/20 00:15:52;;;;;;;;;;;;;;;;;;1031738;28;3835;-52
2023/03/20 00:16:24;;;;;;;;;;;;;;;;;;1032349;28;3898;-52
2023/03/20 00:16:54;;;;;;;;;;;;;;;;;;1035000;28;1878;-54
2023/03/20 00:17:24;;;;;;;;;;;;;;;;;;1031234;28;3915;-53
2023/03/20 00:17:55;;;;;;;;;;;;;;;;;;1035323;28;1713;-52
2023/03/20 00:18:26;;;;;;;;;;;;;;;;;;1034429;28;4062;-53
2023/03/20 00:18:56;;;;;;;;;;;;;;;;;;1033995;28;1950;-56
2023/03/20 00:19:30;;;;;;;;;;;;;;;;;;1033683;28;4055;-52
2023/03/20 00:20:01;;;;;;;;;;;;;;;;;;1034808;28;1873;-55
2023/03/20 00:20:31;;;;;;;;;;;;;;;;;;1033740;28;4124;-52
2023/03/20 00:21:01;;;;;;;;;;;;;;;;;;1033598;28;2788;-53
2023/03/20 00:21:32;;;;;;;;;;;;;;;;;;1032891;28;4106;-49
2023/03/20 00:22:02;;;;;;;;;;;;;;;;;;1032441;28;2157;-55
2023/03/20 00:22:32;;;;;;;;;;;;;;;;;;1033324;28;4224;-55
2023/03/20 00:23:03;;;;;;;;;;;;;;;;;;1034209;28;2742;-53
2023/03/20 00:23:34;;;;;;;;;;;;;;;;;;1035667;28;3784;-53
2023/03/20 00:24:05;;;;;;;;;;;;;;;;;;1033993;28;1856;-57
2023/03/20 00:24:35;;;;;;;;;;;;;;;;;;1033491;28;4053;-51
2023/03/20 00:25:06;;;;;;;;;;;;;;;;;;1035255;28;2918;-52
2023/03/20 00:25:36;;;;;;;;;;;;;;;;;;1034206;28;4075;-53
2023/03/20 00:26:09;;;;;;;;;;;;;;;;;;1032463;28;2800;-55
2023/03/20 00:26:39;;;;;;;;;;;;;;;;;;1031877;28;4327;-52
2023/03/20 00:27:12;;;;;;;;;;;;;;;;;;1033209;28;1834;-52
2023/03/20 00:27:43;;;;;;;;;;;;;;;;;;1033964;28;4227;-53
2023/03/20 00:28:13;;;;;;;;;;;;;;;;;;1033009;28;2230;-52
2023/03/20 00:28:44;;;;;;;;;;;;;;;;;;1033553;28;3991;-54
2023/03/20 00:29:25;;;;;;;;;;;;;;;;;;1034435;28;1771;-51
2023/03/20 00:29:56;;;;;;;;;;;;;;;;;;1032724;28;6687;-55
2023/03/20 00:30:28;;;;;;;;;;;;;;;;;;1034198;28;3970;-52
2023/03/20 00:30:58;;;;;;;;;;;;;;;;;;1034871;28;2877;-54
2023/03/20 00:31:36;;;;;;;;;;;;;;;;;;1034022;28;4193;-49
2023/03/20 00:32:10;;;;;;;;;;;;;;;;;;1034265;28;2113;-52
2023/03/20 00:32:41;;;;;;;;;;;;;;;;;;1033331;28;4050;-55
2023/03/20 00:33:11;;;;;;;;;;;;;;;;;;1033416;28;2315;-52
2023/03/20 00:33:41;;;;;;;;;;;;;;;;;;1034491;28;3879;-56
2023/03/20 00:34:13;;;;;;;;;;;;;;;;;;1033712;28;1962;-51
2023/03/20 00:34:43;;;;;;;;;;;;;;;;;;1034314;28;3853;-53
2023/03/20 00:35:18;;;;;;;;;;;;;;;;;;1032338;28;1823;-52
2023/03/20 00:35:48;;;;;;;;;;;;;;;;;;1033969;28;3809;-52
2023/03/20 00:36:18;;;;;;;;;;;;;;;;;;1032445;28;2986;-51
2023/03/20 00:36:49;;;;;;;;;;;;;;;;;;1034092;28;4062;-53
2023/03/20 00:37:20;;;;;;;;;;;;;;;;;;1034416;28;1819;-51
2023/03/20 00:37:51;;;;;;;;;;;;;;;;;;1034529;28;3980;-51
2023/03/20 00:38:21;;;;;;;;;;;;;;;;;;1031727;28;3933;-54
2023/03/20 00:38:51;;;;;;;;;;;;;;;;;;1034780;28;3060;-53
2023/03/20 00:39:22;;;;;;;;;;;;;;;;;;1033625;28;4073;-54
2023/03/20 00:39:52;;;;;;;;;;;;;;;;;;1034167;28;2802;-51
2023/03/20 00:40:27;;;;;;;;;;;;;;;;;;1033641;28;4085;-53
2023/03/20 00:40:58;;;;;;;;;;;;;;;;;;1033708;28;2226;-54
2023/03/20 00:41:34;;;;;;;;;;;;;;;;;;1032120;28;4003;-52
2023/03/20 00:42:05;;;;;;;;;;;;;;;;;;1033101;28;3104;-52
2023/03/20 00:42:35;;;;;;;;;;;;;;;;;;1033579;28;4049;-56
2023/03/20 00:43:08;;;;;;;;;;;;;;;;;;1031903;28;2775;-53
2023/03/20 00:43:38;;;;;;;;;;;;;;;;;;1034481;28;4041;-51
2023/03/20 00:44:20;;;;;;;;;;;;;;;;;;1035180;28;1769;-53
2023/03/20 00:44:52;;;;;;;;;;;;;;;;;;1031962;28;4850;-54
2023/03/20 00:45:23;;;;;;;;;;;;;;;;;;1032675;28;4076;-55
2023/03/20 00:45:53;;;;;;;;;;;;;;;;;;1034189;28;2226;-56
2023/03/20 00:46:24;;;;;;;;;;;;;;;;;;1031557;28;3986;-55
2023/03/20 00:46:56;;;;;;;;;;;;;;;;;;1032595;28;2828;-54
2023/03/20 00:47:27;;;;;;;;;;;;;;;;;;1033371;28;3876;-50
2023/03/20 00:47:57;;;;;;;;;;;;;;;;;;1033569;28;2020;-49
2023/03/20 00:48:28;;;;;;;;;;;;;;;;;;1030774;28;3957;-53
2023/03/20 00:48:58;;;;;;;;;;;;;;;;;;1034266;28;1917;-57
2023/03/20 00:49:31;;;;;;;;;;;;;;;;;;1034174;28;4119;-54
2023/03/20 00:50:01;;;;;;;;;;;;;;;;;;1031809;28;2691;-55
2023/03/20 00:50:32;;;;;;;;;;;;;;;;;;1032866;28;3880;-50
2023/03/20 00:51:02;;;;;;;;;;;;;;;;;;1033857;28;1839;-52
2023/03/20 00:51:32;;;;;;;;;;;;;;;;;;1033926;28;4212;-54
2023/03/20 00:52:03;;;;;;;;;;;;;;;;;;1034076;28;2389;-55
2023/03/20 00:52:34;;;;;;;;;;;;;;;;;;1033765;28;4058;-54
2023/03/20 00:53:05;;;;;;;;;;;;;;;;;;1032872;28;1869;-55
2023/03/20 00:53:35;;;;;;;;;;;;;;;;;;1033623;28;3884;-53
2023/03/20 00:54:11;;;;;;;;;;;;;;;;;;1033569;28;2834;-54
2023/03/20 00:54:41;;;;;;;;;;;;;;;;;;1033558;28;4051;-51
2023/03/20 00:55:12;;;;;;;;;;;;;;;;;;1035223;28;1666;-54
2023/03/20 00:55:42;;;;;;;;;;;;;;;;;;1034429;28;3933;-52
2023/03/20 00:56:26;;;;;;;;;;;;;;;;;;1033846;28;2218;-52
2023/03/20 00:56:58;;;;;;;;;;;;;;;;;;1034234;28;3943;-54
2023/03/20 00:57:31;;;;;;;;;;;;;;;;;;1034275;28;4076;-50
2023/03/20 00:58:02;;;;;;;;;;;;;;;;;;1032920;28;2940;-51
2023/03/20 00:58:32;;;;;;;;;;;;;;;;;;1033252;28;3968;-54
2023/03/20 00:59:03;;;;;;;;;;;;;;;;;;1033954;28;2010;-53
2023/03/20 00:59:39;;;;;;;;;;;;;;;;;;1033002;28;3880;-55
2023/03/20 01:00:19;;;;;;;;;;;;;;;;;;1032523;28;3011;-55
2023/03/20 01:00:49;;;;;;;;;;;;;;;;;;1034149;28;3787;-53
2023/03/20 01:01:19;;;;;;;;;;;;;;;;;;1029628;28;2309;-52
2023/03/20 01:01:49;;;;;;;;;;;;;;;;;;1031373;28;4027;-53
2023/03/20 01:02:20;;;;;;;;;;;;;;;;;;1032952;28;2815;-54
2023/03/20 01:02:52;;;;;;;;;;;;;;;;;;1033337;28;4070;-57
2023/03/20 01:03:23;;;;;;;;;;;;;;;;;;1031761;28;3871;-52
2023/03/20 01:03:54;;;;;;;;;;;;;;;;;;1033188;28;2727;-54
2023/03/20 01:04:27;;;;;;;;;;;;;;;;;;1034102;28;4013;-55
2023/03/20 01:04:57;;;;;;;;;;;;;;;;;;1034315;28;1940;-53
2023/03/20 01:05:27;;;;;;;;;;;;;;;;;;1032513;28;3987;-54
2023/03/20 01:05:58;;;;;;;;;;;;;;;;;;1033433;28;2447;-52
2023/03/20 01:06:30;;;;;;;;;;;;;;;;;;1033972;28;3810;-52
2023/03/20 01:07:00;;;;;;;;;;;;;;;;;;1033237;28;1968;-55
2023/03/20 01:07:30;;;;;;;;;;;;;;;;;;1034319;28;3908;-52
2023/03/20 01:08:01;;;;;;;;;;;;;;;;;;1033255;28;2816;-53
2023/03/20 01:08:31;;;;;;;;;;;;;;;;;;1029404;28;4246;-54
2023/03/20 01:09:02;;;;;;;;;;;;;;;;;;1033624;28;2774;-53
2023/03/20 01:09:32;;;;;;;;;;;;;;;;;;1033371;28;4034;-54
2023/03/20 01:10:03;;;;;;;;;;;;;;;;;;1033125;28;2419;-56
2023/03/20 01:10:33;;;;;;;;;;;;;;;;;;1035699;28;4100;-54
2023/03/20 01:11:04;;;;;;;;;;;;;;;;;;1036600;28;2817;-56
2023/03/20 01:11:35;;;;;;;;;;;;;;;;;;1039342;28;4480;-55
2023/03/20 01:12:06;;;;;;;;;;;;;;;;;;1039147;28;1748;-54
2023/03/20 01:12:40;;;;;;;;;;;;;;;;;;1034423;28;4019;-51
2023/03/20 01:13:16;;;;;;;;;;;;;;;;;;1037325;28;2911;-54
2023/03/20 01:13:47;;;;;;;;;;;;;;;;;;1037306;28;3808;-52
2023/03/20 01:14:17;;;;;;;;;;;;;;;;;;1039212;28;1821;-54
2023/03/20 01:14:50;;;;;;;;;;;;;;;;;;1035875;28;3992;-54
2023/03/20 01:15:22;;;;;;;;;;;;;;;;;;1037615;28;2969;-53
2023/03/20 01:15:53;;;;;;;;;;;;;;;;;;1037447;28;3920;-54
2023/03/20 01:16:25;;;;;;;;;;;;;;;;;;1035416;28;3936;-53
2023/03/20 01:16:56;;;;;;;;;;;;;;;;;;1037768;28;1988;-56
2023/03/20 01:17:26;;;;;;;;;;;;;;;;;;1038402;28;3808;-56
2023/03/20 01:17:57;;;;;;;;;;;;;;;;;;1037895;28;1873;-53
2023/03/20 01:18:27;;;;;;;;;;;;;;;;;;1038255;28;4030;-52
2023/03/20 01:18:58;;;;;;;;;;;;;;;;;;1038396;28;1751;-53
2023/03/20 01:19:28;;;;;;;;;;;;;;;;;;1037066;28;4025;-53
2023/03/20 01:19:58;;;;;;;;;;;;;;;;;;1038870;28;1926;-53
2023/03/20 01:20:29;;;;;;;;;;;;;;;;;;1038370;28;4123;-53
2023/03/20 01:20:59;;;;;;;;;;;;;;;;;;1035719;28;2658;-56
2023/03/20 01:21:30;;;;;;;;;;;;;;;;;;1038597;28;3948;-51
2023/03/20 01:22:01;;;;;;;;;;;;;;;;;;1037575;28;2321;-54
2023/03/20 01:22:31;;;;;;;;;;;;;;;;;;1036758;28;3955;-55
2023/03/20 01:23:02;;;;;;;;;;;;;;;;;;1037571;28;2633;-53
2023/03/20 01:23:32;;;;;;;;;;;;;;;;;;1037915;28;3815;-53
2023/03/20 01:24:03;;;;;;;;;;;;;;;;;;1036314;28;2204;-54
2023/03/20 01:24:33;;;;;;;;;;;;;;;;;;1037011;28;3960;-52
2023/03/20 01:25:04;;;;;;;;;;;;;;;;;;1039424;28;2030;-53
2023/03/20 01:25:35;;;;;;;;;;;;;;;;;;1036547;28;4151;-55
2023/03/20 01:26:20;;;;;;;;;;;;;;;;;;1039444;28;1661;-52
2023/03/20 01:26:51;;;;;;;;;;;;;;;;;;1036746;28;4027;-53
2023/03/20 01:27:22;;;;;;;;;;;;;;;;;;1037758;28;4178;-54
2023/03/20 01:27:53;;;;;;;;;;;;;;;;;;1036603;28;2979;-51
2023/03/20 01:28:23;;;;;;;;;;;;;;;;;;1038049;28;3845;-52
2023/03/20 01:28:54;;;;;;;;;;;;;;;;;;1037406;28;2013;-55
2023/03/20 01:29:26;;;;;;;;;;;;;;;;;;1038460;28;3965;-52
2023/03/20 01:29:56;;;;;;;;;;;;;;;;;;1038430;28;2725;-54
2023/03/20 01:30:29;;;;;;;;;;;;;;;;;;1036169;28;4253;-56
2023/03/20 01:30:59;;;;;;;;;;;;;;;;;;1034589;28;2817;-54
2023/03/20 01:31:29;;;;;;;;;;;;;;;;;;1034012;28;4067;-53
2023/03/20 01:32:00;;;;;;;;;;;;;;;;;;1033798;28;1831;-53
2023/03/20 01:32:30;;;;;;;;;;;;;;;;;;1037770;28;4098;-54
2023/03/20 01:33:01;;;;;;;;;;;;;;;;;;1033817;28;2221;-54
2023/03/20 01:33:32;;;;;;;;;;;;;;;;;;1033656;28;3914;-56
2023/03/20 01:34:02;;;;;;;;;;;;;;;;;;1038812;28;1704;-52
2023/03/20 01:34:32;;;;;;;;;;;;;;;;;;1033432;28;3966;-51
2023/03/20 01:35:03;;;;;;;;;;;;;;;;;;1033356;28;1932;-55
2023/03/20 01:35:33;;;;;;;;;;;;;;;;;;1033875;28;4045;-50
2023/03/20 01:36:03;;;;;;;;;;;;;;;;;;1036119;28;2662;-54
2023/03/20 01:36:35;;;;;;;;;;;;;;;;;;1036414;28;3867;-53
2023/03/20 01:37:09;;;;;;;;;;;;;;;;;;1038553;28;1756;-52
2023/03/20 01:37:39;;;;;;;;;;;;;;;;;;1038203;28;4003;-52
2023/03/20 01:38:27;;;;;;;;;;;;;;;;;;1036533;28;2733;-51
2023/03/20 01:38:58;;;;;;;;;;;;;;;;;;1036360;28;3828;-52
2023/03/20 01:39:31;;;;;;;;;;;;;;;;;;1036803;28;4062;-52
2023/03/20 01:40:01;;;;;;;;;;;;;;;;;;1038430;28;1882;-57
2023/03/20 01:40:36;;;;;;;;;;;;;;;;;;1036976;28;4106;-53
2023/03/20 01:41:15;;;;;;;;;;;;;;;;;;1031627;28;2735;-52
2023/03/20 01:41:46;;;;;;;;;;;;;;;;;;1034385;28;4048;-53
2023/03/20 01:42:17;;;;;;;;;;;;;;;;;;1032482;28;3024;-52
2023/03/20 01:42:47;;;;;;;;;;;;;;;;;;1033118;28;3989;-51
2023/03/20 01:43:18;;;;;;;;;;;;;;;;;;1031899;28;3234;-55
2023/03/20 01:43:49;;;;;;;;;;;;;;;;;;1034635;28;3852;-54
2023/03/20 01:44:21;;;;;;;;;;;;;;;;;;1032216;28;2804;-52
2023/03/20 01:44:52;;;;;;;;;;;;;;;;;;1034591;28;5333;-54
2023/03/20 01:45:27;;;;;;;;;;;;;;;;;;1032424;28;3926;-55
2023/03/20 01:46:00;;;;;;;;;;;;;;;;;;1033137;28;3140;-54
2023/03/20 01:46:30;;;;;;;;;;;;;;;;;;1032393;28;4218;-53
2023/03/20 01:47:03;;;;;;;;;;;;;;;;;;1031863;28;2861;-55
2023/03/20 01:47:33;;;;;;;;;;;;;;;;;;1034121;28;4090;-56
2023/03/20 01:48:15;;;;;;;;;;;;;;;;;;1034917;28;2631;-53
2023/03/20 01:48:48;;;;;;;;;;;;;;;;;;1030907;28;3966;-53
2023/03/20 01:49:19;;;;;;;;;;;;;;;;;;1033647;28;2676;-51
2023/03/20 01:50:08;;;;;;;;;;;;;;;;;;1033772;28;4402;-54
2023/03/20 01:50:39;;;;;;;;;;;;;;;;;;1034228;28;4070;-51
2023/03/20 01:51:09;;;;;;;;;;;;;;;;;;1033399;28;2043;-54
2023/03/20 01:51:40;;;;;;;;;;;;;;;;;;1034571;28;4053;-55
2023/03/20 01:52:10;;;;;;;;;;;;;;;;;;1033346;28;2819;-50
2023/03/20 01:52:40;;;;;;;;;;;;;;;;;;1032785;28;4475;-55
2023/03/20 01:53:14;;;;;;;;;;;;;;;;;;1032657;28;2062;-54
2023/03/20 01:53:45;;;;;;;;;;;;;;;;;;1034529;28;3852;-55
2023/03/20 01:54:28;;;;;;;;;;;;;;;;;;1033144;28;2821;-53
2023/03/20 01:54:58;;;;;;;;;;;;;;;;;;1032867;28;5315;-56
2023/03/20 01:55:29;;;;;;;;;;;;;;;;;;1033233;28;3932;-54
2023/03/20 01:56:00;;;;;;;;;;;;;;;;;;1034270;28;1790;-54
2023/03/20 01:56:31;;;;;;;;;;;;;;;;;;1032623;28;4209;-52
2023/03/20 01:57:04;;;;;;;;;;;;;;;;;;1032714;28;2205;-54
2023/03/20 01:57:36;;;;;;;;;;;;;;;;;;1034188;28;4090;-52
2023/03/20 01:58:09;;;;;;;;;;;;;;;;;;1034180;28;1598;-53
2023/03/20 01:58:41;;;;;;;;;;;;;;;;;;1034072;28;4046;-53
2023/03/20 01:59:15;;;;;;;;;;;;;;;;;;1032921;28;2907;-55
2023/03/20 01:59:50;;;;;;;;;;;;;;;;;;1031928;28;3832;-53
2023/03/20 02:00:20;;;;;;;;;;;;;;;;;;1031362;28;2958;-55
2023/03/20 02:00:50;;;;;;;;;;;;;;;;;;1033099;28;3828;-52
2023/03/20 02:01:21;;;;;;;;;;;;;;;;;;1033974;28;2707;-50
2023/03/20 02:01:52;;;;;;;;;;;;;;;;;;1032829;28;3643;-53
2023/03/20 02:02:25;;;;;;;;;;;;;;;;;;1033026;28;4327;-52
2023/03/20 02:02:55;;;;;;;;;;;;;;;;;;1034905;28;1318;-54
2023/03/20 02:03:26;;;;;;;;;;;;;;;;;;1032667;28;4243;-52
2023/03/20 02:03:56;;;;;;;;;;;;;;;;;;1033357;28;3084;-56
2023/03/20 02:04:32;;;;;;;;;;;;;;;;;;1033187;28;4299;-54
2023/03/20 02:05:05;;;;;;;;;;;;;;;;;;1033959;28;1644;-52
2023/03/20 02:05:36;;;;;;;;;;;;;;;;;;1033823;28;4242;-52
2023/03/20 02:06:07;;;;;;;;;;;;;;;;;;1035048;28;1625;-55
2023/03/20 02:06:39;;;;;;;;;;;;;;;;;;1029768;28;4032;-52
2023/03/20 02:07:10;;;;;;;;;;;;;;;;;;1031857;28;2934;-55
2023/03/20 02:07:42;;;;;;;;;;;;;;;;;;1033138;28;5369;-53
2023/03/20 02:08:19;;;;;;;;;;;;;;;;;;1031565;28;2344;-53
2023/03/20 02:08:50;;;;;;;;;;;;;;;;;;1030879;28;3950;-55
2023/03/20 02:09:20;;;;;;;;;;;;;;;;;;1032467;28;2827;-56
2023/03/20 02:09:51;;;;;;;;;;;;;;;;;;1033389;28;4017;-52
2023/03/20 02:10:21;;;;;;;;;;;;;;;;;;1032602;28;2278;-55
2023/03/20 02:10:52;;;;;;;;;;;;;;;;;;1033468;28;4119;-52
2023/03/20 02:11:24;;;;;;;;;;;;;;;;;;1033295;28;4068;-53
2023/03/20 02:11:54;;;;;;;;;;;;;;;;;;1034542;28;1718;-53
2023/03/20 02:12:25;;;;;;;;;;;;;;;;;;1031460;28;4331;-53
2023/03/20 02:12:55;;;;;;;;;;;;;;;;;;1034575;28;1757;-55
2023/03/20 02:13:27;;;;;;;;;;;;;;;;;;1033370;28;4444;-52
2023/03/20 02:13:59;;;;;;;;;;;;;;;;;;1032826;28;2830;-55
2023/03/20 02:14:31;;;;;;;;;;;;;;;;;;1030739;28;4029;-52
2023/03/20 02:15:02;;;;;;;;;;;;;;;;;;1034454;28;2953;-53
2023/03/20 02:15:33;;;;;;;;;;;;;;;;;;1033353;28;3889;-54
2023/03/20 02:16:09;;;;;;;;;;;;;;;;;;1032556;28;2783;-54
2023/03/20 02:16:39;;;;;;;;;;;;;;;;;;1030852;28;4221;-53
2023/03/20 02:17:10;;;;;;;;;;;;;;;;;;1033840;28;2906;-53
2023/03/20 02:17:41;;;;;;;;;;;;;;;;;;1033661;28;4067;-51
2023/03/20 02:18:11;;;;;;;;;;;;;;;;;;1034078;28;2590;-53
2023/03/20 02:18:43;;;;;;;;;;;;;;;;;;1032605;28;4037;-52
2023/03/20 02:19:28;;;;;;;;;;;;;;;;;;1035438;28;2085;-54
2023/03/20 02:20:05;;;;;;;;;;;;;;;;;;1033796;28;3801;-55
2023/03/20 02:20:50;;;;;;;;;;;;;;;;;;1031999;28;4066;-54
2023/03/20 02:21:32;;;;;;;;;;;;;;;;;;1034020;28;1801;-53
2023/03/20 02:22:14;;;;;;;;;;;;;;;;;;1037389;28;3813;-53
2023/03/20 02:23:03;;;;;;;;;;;;;;;;;;1036033;28;4029;-50
2023/03/20 02:23:54;;;;;;;;;;;;;;;;;;1031984;28;4072;-51
2023/03/20 02:24:43;;;;;;;;;;;;;;;;;;1030810;28;3986;-55
2023/03/20 02:25:36;;;;;;;;;;;;;;;;;;1031844;28;2762;-53
2023/03/20 02:26:29;;;;;;;;;;;;;;;;;;1033574;28;3991;-53
2023/03/20 02:27:18;;;;;;;;;;;;;;;;;;1031906;28;3823;-55
2023/03/20 02:27:55;;;;;;;;;;;;;;;;;;1033656;28;3835;-53
2023/03/20 02:28:44;;;;;;;;;;;;;;;;;;1033521;28;4077;-52
2023/03/20 02:29:15;;;;;;;;;;;;;;;;;;1032920;28;1935;-53
2023/03/20 02:29:58;;;;;;;;;;;;;;;;;;1032924;28;4023;-54
2023/03/20 02:30:37;;;;;;;;;;;;;;;;;;1029933;28;4074;-54
2023/03/20 02:31:20;;;;;;;;;;;;;;;;;;1034496;28;2943;-54
2023/03/20 02:32:08;;;;;;;;;;;;;;;;;;1032766;28;4002;-55
2023/03/20 02:32:57;;;;;;;;;;;;;;;;;;1031842;28;3960;-55
2023/03/20 02:33:28;;;;;;;;;;;;;;;;;;1032360;28;3886;-57
2023/03/20 02:34:18;;;;;;;;;;;;;;;;;;1037101;28;2358;-51
2023/03/20 02:34:48;;;;;;;;;;;;;;;;;;1038034;28;3953;-54
2023/03/20 02:35:47;;;;;;;;;;;;;;;;;;1036353;28;2481;-51
2023/03/20 02:36:30;;;;;;;;;;;;;;;;;;1037954;28;3840;-53
2023/03/20 02:37:19;;;;;;;;;;;;;;;;;;1036752;28;3971;-55
2023/03/20 02:38:02;;;;;;;;;;;;;;;;;;1038431;28;4009;-51
2023/03/20 02:38:35;;;;;;;;;;;;;;;;;;1036903;28;4239;-53
2023/03/20 02:39:15;;;;;;;;;;;;;;;;;;1038187;28;1708;-51
2023/03/20 02:39:57;;;;;;;;;;;;;;;;;;1038948;28;3773;-54
2023/03/20 02:40:46;;;;;;;;;;;;;;;;;;1038509;28;3838;-57
2023/03/20 02:41:33;;;;;;;;;;;;;;;;;;1037214;28;2216;-55
2023/03/20 02:42:10;;;;;;;;;;;;;;;;;;1036728;28;3776;-54
2023/03/20 02:42:44;;;;;;;;;;;;;;;;;;1037032;28;3794;-55
2023/03/20 02:43:17;;;;;;;;;;;;;;;;;;1037532;28;2342;-51
2023/03/20 02:43:55;;;;;;;;;;;;;;;;;;1037729;28;4054;-52
2023/03/20 02:44:31;;;;;;;;;;;;;;;;;;1038297;28;3870;-55
2023/03/20 02:45:06;;;;;;;;;;;;;;;;;;1038164;28;3096;-50
2023/03/20 02:45:36;;;;;;;;;;;;;;;;;;1034757;28;4034;-52
2023/03/20 02:46:16;;;;;;;;;;;;;;;;;;1038521;28;2819;-55
2023/03/20 02:46:53;;;;;;;;;;;;;;;;;;1036463;28;3992;-50
2023/03/20 02:47:27;;;;;;;;;;;;;;;;;;1036597;28;4211;-53
2023/03/20 02:48:12;;;;;;;;;;;;;;;;;;1037765;28;1810;-57
2023/03/20 02:48:52;;;;;;;;;;;;;;;;;;1037963;28;3860;-51
2023/03/20 02:49:41;;;;;;;;;;;;;;;;;;1036617;28;4095;-54
2023/03/20 02:50:15;;;;;;;;;;;;;;;;;;1036869;28;2863;-52
2023/03/20 02:50:48;;;;;;;;;;;;;;;;;;1037560;28;4773;-51
2023/03/20 02:51:25;;;;;;;;;;;;;;;;;;1036186;28;2833;-54
2023/03/20 02:51:59;;;;;;;;;;;;;;;;;;1037805;28;4483;-54
2023/03/20 02:52:34;;;;;;;;;;;;;;;;;;1037018;28;4058;-54
2023/03/20 02:53:24;;;;;;;;;;;;;;;;;;1035865;28;2823;-53
2023/03/20 02:54:00;;;;;;;;;;;;;;;;;;1037792;28;3985;-53
2023/03/20 02:54:39;;;;;;;;;;;;;;;;;;1037887;28;3876;-54
2023/03/20 02:55:20;;;;;;;;;;;;;;;;;;1036492;28;2730;-53
2023/03/20 02:55:57;;;;;;;;;;;;;;;;;;1038418;28;3978;-52
2023/03/20 02:56:33;;;;;;;;;;;;;;;;;;1037617;28;4049;-54
2023/03/20 02:57:08;;;;;;;;;;;;;;;;;;1036640;28;2778;-52
2023/03/20 02:57:39;;;;;;;;;;;;;;;;;;1037110;28;4124;-54
2023/03/20 02:58:13;;;;;;;;;;;;;;;;;;1037960;28;1860;-53
2023/03/20 02:58:47;;;;;;;;;;;;;;;;;;1037301;28;4235;-50
2023/03/20 02:59:25;;;;;;;;;;;;;;;;;;1035682;28;2990;-53
2023/03/20 03:00:01;;;;;;;;;;;;;;;;;;1033521;28;3849;-51
2023/03/20 03:00:35;;;;;;;;;;;;;;;;;;1031678;28;3938;-52
2023/03/20 03:01:10;;;;;;;;;;;;;;;;;;1035375;28;1821;-52
2023/03/20 03:01:44;;;;;;;;;;;;;;;;;;1034461;28;4037;-54
2023/03/20 03:02:16;;;;;;;;;;;;;;;;;;1032668;28;2633;-56
2023/03/20 03:02:49;;;;;;;;;;;;;;;;;;1031900;28;4063;-51
2023/03/20 03:03:23;;;;;;;;;;;;;;;;;;1034240;28;1649;-53
2023/03/20 03:03:55;;;;;;;;;;;;;;;;;;1034074;28;4119;-55
2023/03/20 03:04:28;;;;;;;;;;;;;;;;;;1032695;28;3787;-49
2023/03/20 03:05:00;;;;;;;;;;;;;;;;;;1029784;28;2959;-55
2023/03/20 03:05:41;;;;;;;;;;;;;;;;;;1030799;28;4240;-54
2023/03/20 03:06:21;;;;;;;;;;;;;;;;;;1029894;28;2746;-53
2023/03/20 03:06:54;;;;;;;;;;;;;;;;;;1030368;28;3806;-55
2023/03/20 03:07:27;;;;;;;;;;;;;;;;;;1035410;28;3895;-53
2023/03/20 03:07:59;;;;;;;;;;;;;;;;;;1034560;28;1971;-52
2023/03/20 03:08:32;;;;;;;;;;;;;;;;;;1032633;28;4012;-53
2023/03/20 03:09:09;;;;;;;;;;;;;;;;;;1034416;28;1659;-55
2023/03/20 03:09:41;;;;;;;;;;;;;;;;;;1030390;28;3871;-55
2023/03/20 03:10:16;;;;;;;;;;;;;;;;;;1033216;28;1799;-55
2023/03/20 03:10:49;;;;;;;;;;;;;;;;;;1038621;28;4036;-51
2023/03/20 03:11:20;;;;;;;;;;;;;;;;;;1038196;28;1879;-52
2023/03/20 03:12:02;;;;;;;;;;;;;;;;;;1034099;28;4078;-53
2023/03/20 03:12:35;;;;;;;;;;;;;;;;;;1032642;28;4060;-57
2023/03/20 03:13:11;;;;;;;;;;;;;;;;;;1031605;28;2759;-55
2023/03/20 03:13:44;;;;;;;;;;;;;;;;;;1033343;28;3799;-53
2023/03/20 03:14:26;;;;;;;;;;;;;;;;;;1033523;28;2171;-54
2023/03/20 03:15:01;;;;;;;;;;;;;;;;;;1033547;28;3815;-57
2023/03/20 03:15:33;;;;;;;;;;;;;;;;;;1032861;28;4079;-54
2023/03/20 03:16:09;;;;;;;;;;;;;;;;;;1035122;28;1687;-54
2023/03/20 03:16:40;;;;;;;;;;;;;;;;;;1032775;28;4069;-53
2023/03/20 03:17:11;;;;;;;;;;;;;;;;;;1034376;28;2287;-57
2023/03/20 03:17:43;;;;;;;;;;;;;;;;;;1032565;28;4015;-52
2023/03/20 03:18:16;;;;;;;;;;;;;;;;;;1032986;28;2886;-54
2023/03/20 03:18:48;;;;;;;;;;;;;;;;;;1033605;28;4070;-52
2023/03/20 03:19:21;;;;;;;;;;;;;;;;;;1033899;28;1987;-57
2023/03/20 03:19:54;;;;;;;;;;;;;;;;;;1032985;28;4023;-55
2023/03/20 03:20:28;;;;;;;;;;;;;;;;;;1034920;28;3964;-54
2023/03/20 03:20:59;;;;;;;;;;;;;;;;;;1034067;28;1709;-55
2023/03/20 03:21:31;;;;;;;;;;;;;;;;;;1032107;28;3887;-52
2023/03/20 03:22:02;;;;;;;;;;;;;;;;;;1032656;28;2625;-53
2023/03/20 03:22:33;;;;;;;;;;;;;;;;;;1033381;28;3859;-54
2023/03/20 03:23:04;;;;;;;;;;;;;;;;;;1037809;28;2757;-54
2023/03/20 03:23:39;;;;;;;;;;;;;;;;;;1039526;28;3916;-55
2023/03/20 03:24:22;;;;;;;;;;;;;;;;;;1039706;28;1661;-53
2023/03/20 03:24:53;;;;;;;;;;;;;;;;;;1037706;28;3623;-53
2023/03/20 03:25:26;;;;;;;;;;;;;;;;;;1037269;28;3907;-55
2023/03/20 03:25:57;;;;;;;;;;;;;;;;;;1039084;28;1915;-52
2023/03/20 03:26:31;;;;;;;;;;;;;;;;;;1038240;28;3902;-56
2023/03/20 03:27:03;;;;;;;;;;;;;;;;;;1037450;28;2863;-54
2023/03/20 03:27:35;;;;;;;;;;;;;;;;;;1040092;28;3878;-54
2023/03/20 03:28:07;;;;;;;;;;;;;;;;;;1038664;28;1957;-51
2023/03/20 03:28:49;;;;;;;;;;;;;;;;;;1038767;28;3880;-54
2023/03/20 03:29:21;;;;;;;;;;;;;;;;;;1037917;28;2929;-50
2023/03/20 03:29:56;;;;;;;;;;;;;;;;;;1036173;28;3977;-56
2023/03/20 03:30:30;;;;;;;;;;;;;;;;;;1036985;28;4110;-56
2023/03/20 03:31:00;;;;;;;;;;;;;;;;;;1037528;28;1890;-53
2023/03/20 03:31:31;;;;;;;;;;;;;;;;;;1038133;28;3875;-51
2023/03/20 03:32:04;;;;;;;;;;;;;;;;;;1038197;28;2715;-54
2023/03/20 03:32:38;;;;;;;;;;;;;;;;;;1036012;28;4058;-55
2023/03/20 03:33:12;;;;;;;;;;;;;;;;;;1036637;28;1794;-53
2023/03/20 03:33:47;;;;;;;;;;;;;;;;;;1038438;28;4454;-52
2023/03/20 03:34:18;;;;;;;;;;;;;;;;;;1037631;28;2072;-55
2023/03/20 03:34:49;;;;;;;;;;;;;;;;;;1036834;28;4027;-54
2023/03/20 03:35:20;;;;;;;;;;;;;;;;;;1037395;28;1867;-52
2023/03/20 03:35:51;;;;;;;;;;;;;;;;;;1035292;28;3911;-52
2023/03/20 03:36:29;;;;;;;;;;;;;;;;;;1036836;28;3320;-53
2023/03/20 03:37:13;;;;;;;;;;;;;;;;;;1036639;28;3822;-56
2023/03/20 03:37:52;;;;;;;;;;;;;;;;;;1038028;28;3779;-54
2023/03/20 03:38:33;;;;;;;;;;;;;;;;;;1038648;28;4107;-53
2023/03/20 03:39:06;;;;;;;;;;;;;;;;;;1038032;28;2338;-52
2023/03/20 03:39:40;;;;;;;;;;;;;;;;;;1034848;28;4023;-50
2023/03/20 03:40:16;;;;;;;;;;;;;;;;;;1037428;28;1803;-55
2023/03/20 03:40:55;;;;;;;;;;;;;;;;;;1036819;28;4031;-54
2023/03/20 03:41:31;;;;;;;;;;;;;;;;;;1037882;28;4242;-51
2023/03/20 03:42:14;;;;;;;;;;;;;;;;;;1039435;28;2436;-57
2023/03/20 03:42:52;;;;;;;;;;;;;;;;;;1034968;28;3967;-55
2023/03/20 03:43:34;;;;;;;;;;;;;;;;;;1036991;28;4088;-56
2023/03/20 03:44:04;;;;;;;;;;;;;;;;;;1038116;28;2012;-51
2023/03/20 03:44:53;;;;;;;;;;;;;;;;;;1036675;28;4045;-50
2023/03/20 03:45:44;;;;;;;;;;;;;;;;;;1038760;28;3827;-55
2023/03/20 03:46:26;;;;;;;;;;;;;;;;;;1039326;28;1794;-52
2023/03/20 03:47:10;;;;;;;;;;;;;;;;;;1038399;28;3948;-56
2023/03/20 03:47:43;;;;;;;;;;;;;;;;;;1039854;28;4021;-54
2023/03/20 03:48:17;;;;;;;;;;;;;;;;;;1038758;28;1767;-54
2023/03/20 03:48:49;;;;;;;;;;;;;;;;;;1036746;28;4127;-54
2023/03/20 03:49:24;;;;;;;;;;;;;;;;;;1038733;28;1824;-50
2023/03/20 03:49:57;;;;;;;;;;;;;;;;;;1038898;28;3893;-56
2023/03/20 03:50:46;;;;;;;;;;;;;;;;;;1038248;28;4057;-54
2023/03/20 03:51:20;;;;;;;;;;;;;;;;;;1038352;28;2498;-53
2023/03/20 03:51:53;;;;;;;;;;;;;;;;;;1038930;28;3963;-54
2023/03/20 03:52:25;;;;;;;;;;;;;;;;;;1038994;28;3965;-50
2023/03/20 03:52:58;;;;;;;;;;;;;;;;;;1037371;28;2721;-51
2023/03/20 03:53:35;;;;;;;;;;;;;;;;;;1039077;28;4083;-53
2023/03/20 03:54:07;;;;;;;;;;;;;;;;;;1035635;28;3228;-52
2023/03/20 03:54:49;;;;;;;;;;;;;;;;;;1037037;28;4450;-52
2023/03/20 03:55:21;;;;;;;;;;;;;;;;;;1037378;28;2700;-52